createdAt,value
2018-03-04T00:00:00.346Z,0.00
2018-03-04T00:01:00.242Z,0.00
2018-03-04T00:02:00.126Z,0.00
2018-03-04T00:03:00.013Z,0.00
2018-03-04T00:03:59.901Z,0.00
2018-03-04T00:05:00.031Z,0.00
2018-03-04T00:05:59.677Z,0.00
2018-03-04T00:06:59.570Z,0.00
2018-03-04T00:07:59.452Z,0.00
2018-03-04T00:08:59.348Z,0.00
2018-03-04T00:09:59.231Z,0.00
2018-03-04T00:10:59.113Z,0.00
2018-03-04T00:11:59.000Z,0.00
2018-03-04T00:12:58.897Z,0.00
2018-03-04T00:13:58.778Z,0.00
2018-03-04T00:14:58.670Z,0.00
2018-03-04T00:15:58.561Z,0.00
2018-03-04T00:16:58.447Z,0.00
2018-03-04T00:17:58.342Z,0.00
2018-03-04T00:18:58.223Z,0.00
2018-03-04T00:19:58.111Z,0.00
2018-03-04T00:20:57.993Z,0.00
2018-03-04T00:21:57.877Z,0.00
2018-03-04T00:22:57.780Z,0.00
2018-03-04T00:23:57.656Z,0.00
2018-03-04T00:24:57.843Z,0.00
2018-03-04T00:25:57.440Z,0.00
2018-03-04T00:26:57.325Z,0.00
2018-03-04T00:27:57.211Z,0.00
2018-03-04T00:28:57.103Z,0.00
2018-03-04T00:29:56.991Z,0.00
2018-03-04T00:30:56.876Z,0.00
2018-03-04T00:31:56.755Z,0.00
2018-03-04T00:32:56.659Z,0.00
2018-03-04T00:33:56.538Z,0.00
2018-03-04T00:34:56.418Z,0.00
2018-03-04T00:35:56.315Z,0.00
2018-03-04T00:36:56.205Z,0.00
2018-03-04T00:37:56.087Z,0.00
2018-03-04T00:38:55.981Z,0.00
2018-03-04T00:39:56.121Z,0.00
2018-03-04T00:40:55.752Z,0.00
2018-03-04T00:41:55.642Z,0.00
2018-03-04T00:42:55.535Z,0.00
2018-03-04T00:43:55.412Z,0.00
2018-03-04T00:44:55.308Z,0.00
2018-03-04T00:45:55.190Z,0.00
2018-03-04T00:46:55.078Z,0.00
2018-03-04T00:47:54.969Z,0.00
2018-03-04T00:48:54.850Z,0.00
2018-03-04T00:49:54.745Z,0.00
2018-03-04T00:50:54.635Z,0.00
2018-03-04T00:51:54.518Z,0.00
2018-03-04T00:52:54.417Z,0.00
2018-03-04T00:53:54.299Z,0.00
2018-03-04T00:54:54.183Z,0.00
2018-03-04T00:55:54.068Z,0.00
2018-03-04T00:56:53.957Z,0.00
2018-03-04T00:57:53.842Z,0.00
2018-03-04T00:58:53.729Z,0.00
2018-03-04T00:59:53.613Z,0.00
2018-03-04T01:00:53.513Z,0.00
2018-03-04T01:01:53.396Z,0.00
2018-03-04T01:02:53.279Z,0.00
2018-03-04T01:03:53.180Z,0.00
2018-03-04T01:04:53.067Z,0.00
2018-03-04T01:05:52.945Z,0.00
2018-03-04T01:06:52.836Z,0.00
2018-03-04T01:07:52.721Z,0.00
2018-03-04T01:08:52.609Z,0.00
2018-03-04T01:09:52.494Z,0.00
2018-03-04T01:10:52.394Z,0.00
2018-03-04T01:11:52.277Z,0.00
2018-03-04T01:12:52.158Z,0.00
2018-03-04T01:13:52.041Z,0.00
2018-03-04T01:14:51.942Z,0.00
2018-03-04T01:15:51.825Z,0.00
2018-03-04T01:16:51.710Z,0.00
2018-03-04T01:17:51.599Z,0.00
2018-03-04T01:18:51.484Z,0.00
2018-03-04T01:19:51.377Z,0.00
2018-03-04T01:20:51.264Z,0.00
2018-03-04T01:21:51.154Z,0.00
2018-03-04T01:22:51.044Z,0.00
2018-03-04T01:23:50.920Z,0.00
2018-03-04T01:24:51.059Z,0.00
2018-03-04T01:25:50.706Z,0.00
2018-03-04T01:26:50.588Z,0.00
2018-03-04T01:27:50.472Z,0.00
2018-03-04T01:28:50.367Z,0.00
2018-03-04T01:29:50.248Z,0.00
2018-03-04T01:30:50.140Z,0.00
2018-03-04T01:31:50.022Z,0.00
2018-03-04T01:32:49.919Z,0.00
2018-03-04T01:33:49.805Z,0.00
2018-03-04T01:34:49.687Z,0.00
2018-03-04T01:35:49.571Z,0.00
2018-03-04T01:36:49.466Z,0.00
2018-03-04T01:37:49.347Z,0.00
2018-03-04T01:38:49.234Z,0.00
2018-03-04T01:39:49.120Z,0.00
2018-03-04T01:40:49.018Z,0.00
2018-03-04T01:41:48.904Z,0.00
2018-03-04T01:42:48.783Z,0.00
2018-03-04T01:43:48.687Z,0.00
2018-03-04T01:44:48.560Z,0.00
2018-03-04T01:45:48.445Z,0.00
2018-03-04T01:46:48.334Z,0.00
2018-03-04T01:47:48.240Z,0.00
2018-03-04T01:48:48.120Z,0.00
2018-03-04T01:49:47.999Z,0.00
2018-03-04T01:50:47.885Z,0.00
2018-03-04T01:51:47.785Z,0.00
2018-03-04T01:52:47.660Z,0.00
2018-03-04T01:53:47.550Z,0.00
2018-03-04T01:54:47.433Z,0.00
2018-03-04T01:55:47.325Z,0.00
2018-03-04T01:56:47.218Z,0.00
2018-03-04T01:57:47.102Z,0.00
2018-03-04T01:58:46.989Z,0.00
2018-03-04T01:59:46.882Z,0.00
2018-03-04T02:00:46.759Z,0.00
2018-03-04T02:01:46.644Z,0.00
2018-03-04T02:02:46.545Z,0.00
2018-03-04T02:03:46.423Z,0.00
2018-03-04T02:04:46.312Z,0.00
2018-03-04T02:05:46.194Z,0.00
2018-03-04T02:06:46.087Z,0.00
2018-03-04T02:07:45.979Z,0.00
2018-03-04T02:08:45.858Z,0.00
2018-03-04T02:09:45.744Z,0.00
2018-03-04T02:10:45.646Z,0.00
2018-03-04T02:11:45.525Z,0.00
2018-03-04T02:12:45.412Z,0.00
2018-03-04T02:13:45.299Z,0.00
2018-03-04T02:14:45.188Z,0.00
2018-03-04T02:15:45.075Z,0.00
2018-03-04T02:16:44.954Z,0.00
2018-03-04T02:17:44.842Z,0.00
2018-03-04T02:18:44.740Z,0.00
2018-03-04T02:19:44.622Z,0.00
2018-03-04T02:20:44.511Z,0.00
2018-03-04T02:21:44.406Z,0.00
2018-03-04T02:22:44.286Z,0.00
2018-03-04T02:23:44.173Z,0.00
2018-03-04T02:24:44.053Z,0.00
2018-03-04T02:25:43.938Z,0.00
2018-03-04T02:26:43.845Z,0.00
2018-03-04T02:27:43.721Z,0.00
2018-03-04T02:28:43.613Z,0.00
2018-03-04T02:29:43.742Z,0.00
2018-03-04T02:30:43.383Z,0.00
2018-03-04T02:31:43.278Z,0.00
2018-03-04T02:32:43.155Z,0.00
2018-03-04T02:33:43.040Z,0.00
2018-03-04T02:34:42.938Z,0.00
2018-03-04T02:35:42.816Z,0.00
2018-03-04T02:36:42.710Z,0.00
2018-03-04T02:37:42.594Z,0.00
2018-03-04T02:38:42.487Z,0.00
2018-03-04T02:39:42.372Z,0.00
2018-03-04T02:40:42.252Z,0.00
2018-03-04T02:41:42.138Z,0.00
2018-03-04T02:42:42.040Z,0.00
2018-03-04T02:43:41.922Z,0.00
2018-03-04T02:44:41.800Z,0.00
2018-03-04T02:45:41.684Z,0.00
2018-03-04T02:46:41.585Z,0.00
2018-03-04T02:47:41.470Z,0.00
2018-03-04T02:48:41.355Z,0.00
2018-03-04T02:49:41.253Z,0.00
2018-03-04T02:50:41.136Z,0.00
2018-03-04T02:51:41.021Z,0.00
2018-03-04T02:52:40.903Z,0.00
2018-03-04T02:53:40.787Z,0.00
2018-03-04T02:54:40.688Z,0.00
2018-03-04T02:55:40.572Z,0.00
2018-03-04T02:56:40.455Z,0.00
2018-03-04T02:57:40.353Z,0.00
2018-03-04T02:58:40.232Z,0.00
2018-03-04T02:59:40.118Z,0.00
2018-03-04T03:00:39.999Z,0.00
2018-03-04T03:01:39.884Z,0.00
2018-03-04T03:02:39.784Z,0.00
2018-03-04T03:03:39.661Z,0.00
2018-03-04T03:04:39.566Z,0.00
2018-03-04T03:05:39.447Z,0.00
2018-03-04T03:06:39.335Z,0.00
2018-03-04T03:07:39.215Z,0.00
2018-03-04T03:08:39.099Z,0.00
2018-03-04T03:09:38.983Z,0.00
2018-03-04T03:10:38.882Z,0.00
2018-03-04T03:11:38.760Z,0.00
2018-03-04T03:12:38.649Z,0.00
2018-03-04T03:13:38.537Z,0.00
2018-03-04T03:14:38.433Z,0.00
2018-03-04T03:15:38.312Z,0.00
2018-03-04T03:16:38.196Z,0.00
2018-03-04T03:17:38.084Z,0.00
2018-03-04T03:18:37.982Z,0.00
2018-03-04T03:19:37.860Z,0.00
2018-03-04T03:20:37.748Z,0.00
2018-03-04T03:21:37.633Z,0.00
2018-03-04T03:22:37.524Z,0.00
2018-03-04T03:23:37.410Z,0.00
2018-03-04T03:24:37.295Z,0.00
2018-03-04T03:25:37.182Z,0.00
2018-03-04T03:26:37.083Z,0.00
2018-03-04T03:27:36.964Z,0.00
2018-03-04T03:28:36.847Z,0.00
2018-03-04T03:29:36.730Z,0.00
2018-03-04T03:30:36.625Z,0.00
2018-03-04T03:31:36.516Z,0.00
2018-03-04T03:32:36.392Z,0.00
2018-03-04T03:33:36.289Z,0.00
2018-03-04T03:34:36.181Z,0.00
2018-03-04T03:35:36.056Z,0.00
2018-03-04T03:36:35.943Z,0.00
2018-03-04T03:37:35.833Z,0.00
2018-03-04T03:38:35.724Z,0.00
2018-03-04T03:39:35.859Z,0.00
2018-03-04T03:40:35.490Z,0.00
2018-03-04T03:41:35.375Z,0.00
2018-03-04T03:42:35.288Z,0.00
2018-03-04T03:43:35.152Z,0.00
2018-03-04T03:44:35.046Z,0.00
2018-03-04T03:45:34.932Z,0.00
2018-03-04T03:46:34.809Z,0.00
2018-03-04T03:47:34.737Z,0.00
2018-03-04T03:48:34.588Z,0.00
2018-03-04T03:49:34.474Z,0.00
2018-03-04T03:50:34.362Z,0.00
2018-03-04T03:51:34.257Z,0.00
2018-03-04T03:52:34.139Z,0.00
2018-03-04T03:53:34.027Z,0.00
2018-03-04T03:54:33.904Z,0.00
2018-03-04T03:55:33.807Z,0.00
2018-03-04T03:56:33.690Z,0.00
2018-03-04T03:57:33.571Z,0.00
2018-03-04T03:58:33.464Z,0.00
2018-03-04T03:59:33.355Z,0.00
2018-03-04T04:00:33.239Z,0.00
2018-03-04T04:01:33.128Z,0.00
2018-03-04T04:02:33.002Z,0.00
2018-03-04T04:03:32.909Z,0.00
2018-03-04T04:04:32.782Z,0.00
2018-03-04T04:05:32.667Z,0.00
2018-03-04T04:06:32.564Z,0.00
2018-03-04T04:07:32.438Z,0.00
2018-03-04T04:08:32.338Z,0.00
2018-03-04T04:09:32.226Z,0.00
2018-03-04T04:10:32.103Z,0.00
2018-03-04T04:11:31.994Z,0.00
2018-03-04T04:12:31.882Z,0.00
2018-03-04T04:13:31.765Z,0.00
2018-03-04T04:14:31.655Z,0.00
2018-03-04T04:15:31.537Z,0.00
2018-03-04T04:16:31.440Z,0.00
2018-03-04T04:17:31.322Z,0.00
2018-03-04T04:18:31.202Z,0.00
2018-03-04T04:19:31.090Z,0.00
2018-03-04T04:20:30.982Z,0.00
2018-03-04T04:21:30.869Z,0.00
2018-03-04T04:22:30.755Z,0.00
2018-03-04T04:23:30.632Z,0.00
2018-03-04T04:24:30.533Z,0.00
2018-03-04T04:25:30.418Z,0.00
2018-03-04T04:26:30.308Z,0.00
2018-03-04T04:27:30.189Z,0.00
2018-03-04T04:28:30.071Z,0.00
2018-03-04T04:29:29.965Z,0.00
2018-03-04T04:30:29.855Z,0.00
2018-03-04T04:31:29.734Z,0.00
2018-03-04T04:32:29.620Z,0.00
2018-03-04T04:33:29.520Z,0.00
2018-03-04T04:34:29.397Z,0.00
2018-03-04T04:35:29.285Z,0.00
2018-03-04T04:36:29.184Z,0.00
2018-03-04T04:37:29.060Z,0.00
2018-03-04T04:38:28.957Z,0.00
2018-03-04T04:39:28.834Z,0.00
2018-03-04T04:40:28.720Z,0.00
2018-03-04T04:41:28.605Z,0.00
2018-03-04T04:42:28.497Z,0.00
2018-03-04T04:43:28.387Z,0.00
2018-03-04T04:44:28.264Z,0.00
2018-03-04T04:45:28.147Z,0.00
2018-03-04T04:46:28.055Z,0.00
2018-03-04T04:47:27.929Z,0.00
2018-03-04T04:48:27.820Z,0.00
2018-03-04T04:49:27.953Z,0.00
2018-03-04T04:50:27.588Z,0.00
2018-03-04T04:51:27.480Z,0.00
2018-03-04T04:52:27.367Z,0.00
2018-03-04T04:53:27.257Z,0.00
2018-03-04T04:54:27.131Z,0.00
2018-03-04T04:55:27.030Z,0.00
2018-03-04T04:56:26.916Z,0.00
2018-03-04T04:57:26.795Z,0.00
2018-03-04T04:58:26.683Z,0.00
2018-03-04T04:59:26.581Z,0.00
2018-03-04T05:00:26.465Z,0.00
2018-03-04T05:01:26.350Z,0.00
2018-03-04T05:02:26.230Z,0.00
2018-03-04T05:03:26.123Z,0.00
2018-03-04T05:04:26.013Z,0.00
2018-03-04T05:05:25.894Z,0.00
2018-03-04T05:06:25.782Z,0.00
2018-03-04T05:07:25.665Z,0.00
2018-03-04T05:08:25.565Z,0.00
2018-03-04T05:09:25.482Z,0.00
2018-03-04T05:10:25.332Z,0.00
2018-03-04T05:11:25.221Z,0.00
2018-03-04T05:12:25.100Z,0.00
2018-03-04T05:13:24.998Z,0.00
2018-03-04T05:14:25.183Z,4.00
2018-03-04T05:15:24.761Z,0.00
2018-03-04T05:16:24.665Z,0.00
2018-03-04T05:17:24.538Z,4.00
2018-03-04T05:18:24.431Z,0.00
2018-03-04T05:19:24.316Z,4.00
2018-03-04T05:20:24.196Z,4.00
2018-03-04T05:21:24.084Z,4.00
2018-03-04T05:22:23.980Z,8.00
2018-03-04T05:23:23.865Z,8.00
2018-03-04T05:24:24.049Z,8.00
2018-03-04T05:25:23.634Z,8.00
2018-03-04T05:26:23.529Z,12.00
2018-03-04T05:27:23.411Z,16.00
2018-03-04T05:28:23.292Z,16.00
2018-03-04T05:29:23.177Z,20.00
2018-03-04T05:30:23.066Z,24.00
2018-03-04T05:31:22.959Z,28.00
2018-03-04T05:32:22.846Z,32.00
2018-03-04T05:33:22.734Z,36.00
2018-03-04T05:34:22.611Z,44.00
2018-03-04T05:35:22.510Z,52.00
2018-03-04T05:36:22.390Z,60.00
2018-03-04T05:37:22.276Z,64.00
2018-03-04T05:38:22.165Z,72.00
2018-03-04T05:39:22.050Z,84.00
2018-03-04T05:40:21.947Z,96.00
2018-03-04T05:41:21.828Z,108.00
2018-03-04T05:42:21.703Z,120.00
2018-03-04T05:43:21.611Z,136.00
2018-03-04T05:44:21.496Z,152.00
2018-03-04T05:45:21.378Z,172.00
2018-03-04T05:46:21.289Z,188.00
2018-03-04T05:47:21.148Z,208.00
2018-03-04T05:48:21.031Z,228.00
2018-03-04T05:49:20.931Z,252.00
2018-03-04T05:50:20.806Z,276.00
2018-03-04T05:51:20.700Z,300.00
2018-03-04T05:52:20.577Z,328.00
2018-03-04T05:53:20.462Z,356.00
2018-03-04T05:54:20.364Z,380.00
2018-03-04T05:55:20.246Z,404.00
2018-03-04T05:56:20.130Z,428.00
2018-03-04T05:57:20.013Z,456.00
2018-03-04T05:58:19.914Z,480.00
2018-03-04T05:59:19.795Z,504.00
2018-03-04T06:00:19.675Z,536.00
2018-03-04T06:01:19.559Z,568.00
2018-03-04T06:02:19.459Z,596.00
2018-03-04T06:03:19.345Z,628.00
2018-03-04T06:04:19.230Z,656.00
2018-03-04T06:05:19.111Z,688.00
2018-03-04T06:06:19.002Z,724.00
2018-03-04T06:07:18.894Z,760.00
2018-03-04T06:08:18.777Z,792.00
2018-03-04T06:09:18.659Z,836.00
2018-03-04T06:10:18.559Z,876.00
2018-03-04T06:11:18.439Z,916.00
2018-03-04T06:12:18.395Z,956.00
2018-03-04T06:13:18.217Z,996.00
2018-03-04T06:14:18.095Z,1032.00
2018-03-04T06:15:17.991Z,1076.00
2018-03-04T06:16:17.870Z,1120.00
2018-03-04T06:17:17.754Z,1160.00
2018-03-04T06:18:17.658Z,1208.00
2018-03-04T06:19:17.787Z,1256.00
2018-03-04T06:20:17.425Z,1300.00
2018-03-04T06:21:17.311Z,1348.00
2018-03-04T06:22:17.205Z,1400.00
2018-03-04T06:23:17.087Z,1448.00
2018-03-04T06:24:16.972Z,1500.00
2018-03-04T06:25:16.858Z,1544.00
2018-03-04T06:26:16.754Z,1572.00
2018-03-04T06:27:16.633Z,1592.00
2018-03-04T06:28:16.520Z,1616.00
2018-03-04T06:29:16.406Z,1644.00
2018-03-04T06:30:16.298Z,1688.00
2018-03-04T06:31:16.191Z,1756.00
2018-03-04T06:32:16.070Z,1808.00
2018-03-04T06:33:15.973Z,1856.00
2018-03-04T06:34:15.855Z,1900.00
2018-03-04T06:35:15.736Z,1948.00
2018-03-04T06:36:15.626Z,1984.00
2018-03-04T06:37:15.520Z,2024.00
2018-03-04T06:38:15.397Z,2056.00
2018-03-04T06:39:15.286Z,2092.00
2018-03-04T06:40:15.179Z,2132.00
2018-03-04T06:41:15.064Z,2184.00
2018-03-04T06:42:14.953Z,2236.00
2018-03-04T06:43:14.849Z,2304.00
2018-03-04T06:44:15.033Z,2356.00
2018-03-04T06:45:14.621Z,2408.00
2018-03-04T06:46:14.500Z,2448.00
2018-03-04T06:47:14.386Z,2468.00
2018-03-04T06:48:14.282Z,2476.00
2018-03-04T06:49:14.161Z,2492.00
2018-03-04T06:50:14.049Z,2528.00
2018-03-04T06:51:13.934Z,2560.00
2018-03-04T06:52:13.834Z,2612.00
2018-03-04T06:53:13.715Z,2676.00
2018-03-04T06:54:13.597Z,2736.00
2018-03-04T06:55:13.510Z,2808.00
2018-03-04T06:56:13.375Z,2888.00
2018-03-04T06:57:13.259Z,3008.00
2018-03-04T06:58:13.153Z,3156.00
2018-03-04T06:59:13.049Z,3304.00
2018-03-04T07:00:12.924Z,3444.00
2018-03-04T07:01:12.807Z,3568.00
2018-03-04T07:02:12.702Z,3664.00
2018-03-04T07:03:12.590Z,3764.00
2018-03-04T07:04:12.731Z,3856.00
2018-03-04T07:05:12.366Z,3956.00
2018-03-04T07:06:12.244Z,4036.00
2018-03-04T07:07:12.147Z,4096.00
2018-03-04T07:08:12.022Z,4112.00
2018-03-04T07:09:11.907Z,4152.00
2018-03-04T07:10:11.811Z,4172.00
2018-03-04T07:11:11.688Z,4160.00
2018-03-04T07:12:11.580Z,4284.00
2018-03-04T07:13:11.474Z,4324.00
2018-03-04T07:14:11.354Z,4364.00
2018-03-04T07:15:11.242Z,4516.00
2018-03-04T07:16:11.139Z,4748.00
2018-03-04T07:17:11.018Z,4956.00
2018-03-04T07:18:10.912Z,5068.00
2018-03-04T07:19:11.041Z,5200.00
2018-03-04T07:20:10.687Z,5404.00
2018-03-04T07:21:10.570Z,5684.00
2018-03-04T07:22:10.454Z,5992.00
2018-03-04T07:23:10.355Z,5840.00
2018-03-04T07:24:10.232Z,5604.00
2018-03-04T07:25:10.121Z,5652.00
2018-03-04T07:26:10.022Z,5508.00
2018-03-04T07:27:09.897Z,5444.00
2018-03-04T07:28:09.791Z,5488.00
2018-03-04T07:29:09.688Z,5920.00
2018-03-04T07:30:09.560Z,6196.00
2018-03-04T07:31:09.449Z,6396.00
2018-03-04T07:32:09.342Z,6368.00
2018-03-04T07:33:09.225Z,6188.00
2018-03-04T07:34:09.122Z,6028.00
2018-03-04T07:35:09.061Z,5848.00
2018-03-04T07:36:08.900Z,5720.00
2018-03-04T07:37:08.782Z,5772.00
2018-03-04T07:38:08.675Z,5772.00
2018-03-04T07:39:08.561Z,5820.00
2018-03-04T07:40:08.459Z,5964.00
2018-03-04T07:41:08.344Z,6068.00
2018-03-04T07:42:08.225Z,6116.00
2018-03-04T07:43:08.123Z,6056.00
2018-03-04T07:44:08.011Z,5984.00
2018-03-04T07:45:07.893Z,5944.00
2018-03-04T07:46:07.786Z,5932.00
2018-03-04T07:47:07.674Z,5952.00
2018-03-04T07:48:07.557Z,5992.00
2018-03-04T07:49:07.450Z,6056.00
2018-03-04T07:50:07.344Z,6156.00
2018-03-04T07:51:07.230Z,6276.00
2018-03-04T07:52:07.118Z,6428.00
2018-03-04T07:53:07.002Z,6612.00
2018-03-04T07:54:06.895Z,6804.00
2018-03-04T07:55:06.787Z,6952.00
2018-03-04T07:56:06.679Z,7084.00
2018-03-04T07:57:06.562Z,7196.00
2018-03-04T07:58:06.452Z,7268.00
2018-03-04T07:59:06.340Z,7296.00
2018-03-04T08:00:06.228Z,7288.00
2018-03-04T08:01:06.125Z,7248.00
2018-03-04T08:02:06.016Z,7220.00
2018-03-04T08:03:05.907Z,7124.00
2018-03-04T08:04:06.089Z,7004.00
2018-03-04T08:05:05.677Z,6868.00
2018-03-04T08:06:05.574Z,6772.00
2018-03-04T08:07:05.453Z,6696.00
2018-03-04T08:08:05.352Z,6500.00
2018-03-04T08:09:05.235Z,6340.00
2018-03-04T08:10:05.129Z,6328.00
2018-03-04T08:11:05.263Z,6296.00
2018-03-04T08:12:04.913Z,6288.00
2018-03-04T08:13:04.800Z,6412.00
2018-03-04T08:14:04.698Z,6472.00
2018-03-04T08:15:04.576Z,6520.00
2018-03-04T08:16:04.480Z,6540.00
2018-03-04T08:17:04.360Z,6580.00
2018-03-04T08:18:04.244Z,6600.00
2018-03-04T08:19:04.141Z,6544.00
2018-03-04T08:20:04.020Z,6504.00
2018-03-04T08:21:03.919Z,6388.00
2018-03-04T08:22:03.806Z,6468.00
2018-03-04T08:23:03.700Z,6488.00
2018-03-04T08:24:03.588Z,6392.00
2018-03-04T08:25:03.498Z,6536.00
2018-03-04T08:26:03.365Z,6756.00
2018-03-04T08:27:03.265Z,6952.00
2018-03-04T08:28:03.147Z,7192.00
2018-03-04T08:29:03.044Z,7336.00
2018-03-04T08:30:02.936Z,7424.00
2018-03-04T08:31:02.813Z,7496.00
2018-03-04T08:32:02.722Z,7512.00
2018-03-04T08:33:02.596Z,7476.00
2018-03-04T08:34:02.490Z,7424.00
2018-03-04T08:35:02.378Z,7392.00
2018-03-04T08:36:02.271Z,7368.00
2018-03-04T08:37:02.155Z,7388.00
2018-03-04T08:38:02.055Z,7392.00
2018-03-04T08:39:01.938Z,7416.00
2018-03-04T08:40:01.833Z,7356.00
2018-03-04T08:41:01.718Z,7312.00
2018-03-04T08:42:01.598Z,7204.00
2018-03-04T08:43:01.501Z,7148.00
2018-03-04T08:44:01.392Z,6916.00
2018-03-04T08:45:01.282Z,6740.00
2018-03-04T08:46:01.164Z,6676.00
2018-03-04T08:47:01.060Z,6636.00
2018-03-04T08:48:00.948Z,6612.00
2018-03-04T08:49:01.091Z,6580.00
2018-03-04T08:50:00.720Z,6544.00
2018-03-04T08:51:00.625Z,6460.00
2018-03-04T08:52:00.503Z,6372.00
2018-03-04T08:53:00.399Z,6248.00
2018-03-04T08:54:00.289Z,6172.00
2018-03-04T08:55:00.181Z,6232.00
2018-03-04T08:56:00.069Z,6364.00
2018-03-04T08:56:59.969Z,6672.00
2018-03-04T08:57:59.846Z,6572.00
2018-03-04T08:59:00.000Z,6684.00
2018-03-04T08:59:59.629Z,6648.00
2018-03-04T09:00:59.522Z,6776.00
2018-03-04T09:01:59.426Z,6840.00
2018-03-04T09:02:59.305Z,6892.00
2018-03-04T09:03:59.207Z,6980.00
2018-03-04T09:04:59.090Z,7028.00
2018-03-04T09:05:58.974Z,7048.00
2018-03-04T09:06:58.867Z,7088.00
2018-03-04T09:07:58.756Z,7116.00
2018-03-04T09:08:58.652Z,7124.00
2018-03-04T09:09:58.534Z,7152.00
2018-03-04T09:10:58.430Z,7192.00
2018-03-04T09:11:58.311Z,7208.00
2018-03-04T09:12:58.213Z,7280.00
2018-03-04T09:13:58.109Z,7360.00
2018-03-04T09:14:57.998Z,7412.00
2018-03-04T09:15:57.884Z,7512.00
2018-03-04T09:16:57.776Z,7572.00
2018-03-04T09:17:57.656Z,7688.00
2018-03-04T09:18:57.854Z,7780.00
2018-03-04T09:19:57.433Z,7892.00
2018-03-04T09:20:57.336Z,8008.00
2018-03-04T09:21:57.223Z,8072.00
2018-03-04T09:22:57.112Z,8176.00
2018-03-04T09:23:57.005Z,8216.00
2018-03-04T09:24:56.897Z,8276.00
2018-03-04T09:25:56.788Z,8356.00
2018-03-04T09:26:56.680Z,8476.00
2018-03-04T09:27:56.571Z,8456.00
2018-03-04T09:28:56.458Z,8264.00
2018-03-04T09:29:56.358Z,8204.00
2018-03-04T09:30:56.240Z,8240.00
2018-03-04T09:31:56.140Z,8264.00
2018-03-04T09:32:56.020Z,8328.00
2018-03-04T09:33:55.913Z,8444.00
2018-03-04T09:34:55.815Z,8472.00
2018-03-04T09:35:55.694Z,8500.00
2018-03-04T09:36:55.598Z,8560.00
2018-03-04T09:37:55.485Z,8552.00
2018-03-04T09:38:55.377Z,8556.00
2018-03-04T09:39:55.263Z,8556.00
2018-03-04T09:40:55.162Z,8536.00
2018-03-04T09:41:55.052Z,8516.00
2018-03-04T09:42:54.941Z,8516.00
2018-03-04T09:43:54.830Z,8528.00
2018-03-04T09:44:54.713Z,8480.00
2018-03-04T09:45:54.620Z,8352.00
2018-03-04T09:46:54.499Z,8244.00
2018-03-04T09:47:54.397Z,8264.00
2018-03-04T09:48:54.298Z,8184.00
2018-03-04T09:49:54.174Z,8052.00
2018-03-04T09:50:54.076Z,7956.00
2018-03-04T09:51:53.958Z,7896.00
2018-03-04T09:52:53.853Z,7868.00
2018-03-04T09:53:53.758Z,7760.00
2018-03-04T09:54:53.633Z,7656.00
2018-03-04T09:55:53.530Z,7516.00
2018-03-04T09:56:53.415Z,7420.00
2018-03-04T09:57:53.308Z,7368.00
2018-03-04T09:58:53.214Z,7336.00
2018-03-04T09:59:53.092Z,7308.00
2018-03-04T10:00:52.992Z,7308.00
2018-03-04T10:01:52.880Z,7272.00
2018-03-04T10:02:52.767Z,7236.00
2018-03-04T10:03:52.667Z,7228.00
2018-03-04T10:04:52.550Z,7192.00
2018-03-04T10:05:52.443Z,7156.00
2018-03-04T10:06:52.345Z,7096.00
2018-03-04T10:07:52.227Z,6976.00
2018-03-04T10:08:52.124Z,6896.00
2018-03-04T10:09:52.015Z,6848.00
2018-03-04T10:10:51.902Z,6752.00
2018-03-04T10:11:51.804Z,6624.00
2018-03-04T10:12:51.690Z,6484.00
2018-03-04T10:13:51.585Z,6328.00
2018-03-04T10:14:51.483Z,6140.00
2018-03-04T10:15:51.363Z,5960.00
2018-03-04T10:16:51.259Z,5780.00
2018-03-04T10:17:51.160Z,5608.00
2018-03-04T10:18:51.038Z,5556.00
2018-03-04T10:19:50.945Z,5732.00
2018-03-04T10:20:50.839Z,5868.00
2018-03-04T10:21:50.721Z,6136.00
2018-03-04T10:22:50.619Z,6316.00
2018-03-04T10:23:50.510Z,6632.00
2018-03-04T10:24:50.399Z,6940.00
2018-03-04T10:25:50.298Z,7160.00
2018-03-04T10:26:50.176Z,7320.00
2018-03-04T10:27:50.078Z,7448.00
2018-03-04T10:28:49.973Z,7552.00
2018-03-04T10:29:49.856Z,7600.00
2018-03-04T10:30:49.752Z,7588.00
2018-03-04T10:31:49.650Z,7464.00
2018-03-04T10:32:49.528Z,7284.00
2018-03-04T10:33:49.429Z,7108.00
2018-03-04T10:34:49.339Z,6976.00
2018-03-04T10:35:49.214Z,6864.00
2018-03-04T10:36:49.109Z,6788.00
2018-03-04T10:37:48.990Z,6708.00
2018-03-04T10:38:48.938Z,6632.00
2018-03-04T10:39:48.785Z,6600.00
2018-03-04T10:40:48.669Z,6576.00
2018-03-04T10:41:48.566Z,6520.00
2018-03-04T10:42:48.464Z,6492.00
2018-03-04T10:43:48.348Z,6488.00
2018-03-04T10:44:48.249Z,6500.00
2018-03-04T10:45:48.135Z,6536.00
2018-03-04T10:46:48.028Z,6532.00
2018-03-04T10:47:47.920Z,6512.00
2018-03-04T10:48:47.818Z,6520.00
2018-03-04T10:49:47.702Z,6500.00
2018-03-04T10:50:47.604Z,6496.00
2018-03-04T10:51:47.494Z,6472.00
2018-03-04T10:52:47.386Z,6456.00
2018-03-04T10:53:47.271Z,6492.00
2018-03-04T10:54:47.177Z,6476.00
2018-03-04T10:55:47.055Z,6496.00
2018-03-04T10:56:46.965Z,6492.00
2018-03-04T10:57:46.858Z,6488.00
2018-03-04T10:58:46.733Z,6496.00
2018-03-04T10:59:46.636Z,6472.00
2018-03-04T11:00:46.530Z,6472.00
2018-03-04T11:01:46.414Z,6476.00
2018-03-04T11:02:46.314Z,6492.00
2018-03-04T11:03:46.201Z,6460.00
2018-03-04T11:04:46.085Z,6424.00
2018-03-04T11:05:46.022Z,6392.00
2018-03-04T11:06:45.883Z,6388.00
2018-03-04T11:07:45.772Z,6408.00
2018-03-04T11:08:45.666Z,6432.00
2018-03-04T11:09:45.580Z,6404.00
2018-03-04T11:10:45.444Z,6400.00
2018-03-04T11:11:45.337Z,6396.00
2018-03-04T11:12:45.237Z,6380.00
2018-03-04T11:13:45.126Z,6364.00
2018-03-04T11:14:45.015Z,6364.00
2018-03-04T11:15:44.917Z,6364.00
2018-03-04T11:16:44.815Z,6368.00
2018-03-04T11:17:44.698Z,6368.00
2018-03-04T11:18:44.845Z,6356.00
2018-03-04T11:19:44.490Z,6312.00
2018-03-04T11:20:44.373Z,6272.00
2018-03-04T11:21:44.272Z,6252.00
2018-03-04T11:22:44.163Z,6276.00
2018-03-04T11:23:44.063Z,6300.00
2018-03-04T11:24:43.950Z,6300.00
2018-03-04T11:25:43.849Z,6284.00
2018-03-04T11:26:43.743Z,6252.00
2018-03-04T11:27:43.625Z,6224.00
2018-03-04T11:28:43.585Z,6200.00
2018-03-04T11:29:43.421Z,6136.00
2018-03-04T11:30:43.318Z,6080.00
2018-03-04T11:31:43.202Z,6064.00
2018-03-04T11:32:43.099Z,6072.00
2018-03-04T11:33:42.991Z,6164.00
2018-03-04T11:34:42.879Z,6244.00
2018-03-04T11:35:42.769Z,6264.00
2018-03-04T11:36:42.670Z,6236.00
2018-03-04T11:37:42.572Z,6232.00
2018-03-04T11:38:42.449Z,6248.00
2018-03-04T11:39:42.353Z,6252.00
2018-03-04T11:40:42.246Z,6248.00
2018-03-04T11:41:42.139Z,6220.00
2018-03-04T11:42:42.025Z,6232.00
2018-03-04T11:43:41.924Z,6240.00
2018-03-04T11:44:41.815Z,6268.00
2018-03-04T11:45:41.714Z,6312.00
2018-03-04T11:46:41.601Z,6340.00
2018-03-04T11:47:41.500Z,6332.00
2018-03-04T11:48:41.394Z,6300.00
2018-03-04T11:49:41.328Z,6292.00
2018-03-04T11:50:41.177Z,6220.00
2018-03-04T11:51:41.071Z,6112.00
2018-03-04T11:52:40.965Z,5984.00
2018-03-04T11:53:40.870Z,5880.00
2018-03-04T11:54:40.751Z,5908.00
2018-03-04T11:55:40.645Z,6016.00
2018-03-04T11:56:40.543Z,6080.00
2018-03-04T11:57:40.435Z,6148.00
2018-03-04T11:58:40.338Z,6184.00
2018-03-04T11:59:40.218Z,6220.00
2018-03-04T12:00:40.114Z,6220.00
2018-03-04T12:01:40.019Z,6176.00
2018-03-04T12:02:39.906Z,6176.00
2018-03-04T12:03:40.058Z,6212.00
2018-03-04T12:04:39.693Z,6260.00
2018-03-04T12:05:39.585Z,6264.00
2018-03-04T12:06:39.483Z,6312.00
2018-03-04T12:07:39.376Z,6376.00
2018-03-04T12:08:39.266Z,6388.00
2018-03-04T12:09:39.193Z,6384.00
2018-03-04T12:10:39.056Z,6340.00
2018-03-04T12:11:38.956Z,6300.00
2018-03-04T12:12:38.854Z,6248.00
2018-03-04T12:13:38.737Z,6236.00
2018-03-04T12:14:38.681Z,6204.00
2018-03-04T12:15:38.525Z,6156.00
2018-03-04T12:16:38.427Z,6092.00
2018-03-04T12:17:38.324Z,6040.00
2018-03-04T12:18:38.204Z,5960.00
2018-03-04T12:19:38.156Z,5888.00
2018-03-04T12:20:38.002Z,5860.00
2018-03-04T12:21:37.894Z,5844.00
2018-03-04T12:22:37.797Z,5832.00
2018-03-04T12:23:37.673Z,5828.00
2018-03-04T12:24:37.570Z,5824.00
2018-03-04T12:25:37.471Z,5776.00
2018-03-04T12:26:37.365Z,5708.00
2018-03-04T12:27:37.267Z,5672.00
2018-03-04T12:28:37.151Z,5664.00
2018-03-04T12:29:37.042Z,5680.00
2018-03-04T12:30:36.947Z,5700.00
2018-03-04T12:31:36.846Z,5672.00
2018-03-04T12:32:36.736Z,5612.00
2018-03-04T12:33:36.632Z,5564.00
2018-03-04T12:34:36.512Z,5480.00
2018-03-04T12:35:36.418Z,5428.00